• Join FlightAware (Why Join?)
  • Login
  • US Flag 
04:10PM EDT


 

Airport Tracker/Info


-or-


 

Live Flight TrackerFlight Track Log ✈ FIN666 ✈ 10-Apr-2014 ✈ EKCH / CPH - EFHK / HEL

Flight Track Log - Related Links

Times and Time Zones

All times are in EDT time to prevent confusion due to time zone crossing. See the FIN666 flight status page for this flight to view local times or setup timezone preferences in your user account.

Time Position Orientation Groundspeed Altitude Reporting Facility
EDT Latitude Longitude Course Direction KTS MPH feet Rate Location/Type
07:32AM 55.9164 13.2747 49° Northeast  Level Estimated
07:33AM 55.9905 13.4309 50° Northeast  Level Estimated
07:34AM 56.0644 13.5877 50° Northeast  Level Estimated
07:35AM 56.1381 13.7451 50° Northeast  Level Estimated
07:36AM 56.2117 13.9031 50° Northeast  Level Estimated
07:37AM 56.2850 14.0617 50° Northeast  Level Estimated
07:38AM 56.3581 14.2208 50° Northeast  Level Estimated
07:39AM 56.4310 14.3807 50° Northeast  Level Estimated
07:40AM 56.5037 14.5411 51° Northeast  Level Estimated
07:41AM 56.5762 14.7021 51° Northeast  Level Estimated
07:42AM 56.6485 14.8638 51° Northeast  Level Estimated
07:43AM 56.7206 15.0260 51° Northeast  Level Estimated
07:44AM 56.7925 15.1889 51° Northeast  Level Estimated
07:45AM 56.8641 15.3525 51° Northeast  Level Estimated
07:46AM 56.9356 15.5166 51° Northeast  Level Estimated
07:47AM 57.0068 15.6814 52° Northeast  Level Estimated
07:48AM 57.0832 15.8596 52° Northeast  Level Estimated
07:49AM 57.1595 16.0385 52° Northeast  Level Estimated
07:50AM 57.2354 16.2181 52° Northeast  Level Estimated
07:51AM 57.3111 16.3985 52° Northeast  Level Estimated
07:52AM 57.3865 16.5796 52° Northeast  Level Estimated
07:53AM 57.4617 16.7614 52° Northeast  Level Estimated
07:54AM 57.5366 16.9440 53° Northeast  Level Estimated
07:55AM 57.6031 17.1073 53° Northeast  Level Estimated
07:56AM 57.6694 17.2711 53° Northeast  Level Estimated
07:57AM 57.7354 17.4355 53° Northeast  Level Estimated
07:58AM 57.8013 17.6006 53° Northeast  Level Estimated
07:59AM 57.8669 17.7662 53° Northeast  Level Estimated
08:00AM 57.9323 17.9324 53° Northeast  Level Estimated
08:01AM 57.9975 18.0993 54° Northeast  Level Estimated
08:02AM 58.0625 18.2667 54° Northeast  Level Estimated
08:03AM 58.1272 18.4348 54° Northeast  Level Estimated
08:04AM 58.1918 18.6034 54° Northeast  Level Estimated
08:05AM 58.2561 18.7727 54° Northeast  Level Estimated
08:06AM 58.3201 18.9426 54° Northeast  Level Estimated
08:07AM 58.3840 19.1131 54° Northeast  Level Estimated
08:08AM 58.4476 19.2842 55° Northeast  Level Estimated
08:09AM 58.5110 19.4560 55° Northeast  Level Estimated
08:10AM 58.5742 19.6283 55° Northeast  Level Estimated
08:11AM 58.6372 19.8013 55° Northeast  Level Estimated
08:12AM 58.6999 19.9749 55° Northeast  Level Estimated
08:13AM 58.7623 20.1492 55° Northeast  Level Estimated
08:14AM 58.8246 20.3240 55° Northeast  Level Estimated
08:15AM 58.8866 20.4995 56° Northeast  Level Estimated
08:16AM 58.9483 20.6756 56° Northeast  Level Estimated
08:17AM 59.0098 20.8524 56° Northeast  Level Estimated
08:18AM 59.0711 21.0298 56° Northeast  Level Estimated
08:19AM 59.1322 21.2078 56° Northeast  Level Estimated
08:20AM 59.1930 21.3864 56° Northeast  Level Estimated
08:21AM 59.2535 21.5657 56° Northeast  Level Estimated
08:22AM 59.3138 21.7457 57° Northeast  Level Estimated
08:23AM 59.3739 21.9262 57° Northeast  Level Estimated
08:24AM 59.4337 22.1074 57° Northeast  Level Estimated
08:25AM 59.4932 22.2893 57° Northeast  Level Estimated
08:26AM 59.5525 22.4717 57° Northeast  Level Estimated
08:27AM 59.6115 22.6549 57° Northeast  Level Estimated
08:28AM 59.6703 22.8386 58° Northeast  Level Estimated
08:29AM 59.7289 23.0230 58° Northeast  Level Estimated
08:30AM 59.7871 23.2081 58° Northeast  Level Estimated
08:31AM 59.8451 23.3938 58° Northeast  Level Estimated
08:32AM 59.9029 23.5802 58° Northeast  Level Estimated
08:33AM 59.9603 23.7671 58° Northeast  Level Estimated
08:34AM 60.0176 23.9548 59° Northeast  Level Estimated
08:35AM 60.0745 24.1431 59° Northeast  Level Estimated
08:36AM 60.1312 24.3320 59° Northeast  Level Estimated
08:37AM 60.1876 24.5216 59° Northeast  Level Estimated
08:38AM 60.2437 24.7119 59° Northeast  Level Estimated
08:39AM 60.2996 24.9028 59° Northeast  Level Estimated
08:40AM 60.3172 24.9633 60° Northeast  Level Estimated
08:41AM 60.3172 24.9633 North  Level Estimated
08:42AM 60.3172 24.9633 North  Level Estimated
08:43AM 60.3172 24.9633 North  Level Estimated
08:44AM 60.3172 24.9633 North  Level Estimated
08:45AM 60.3172 24.9633 North  Level Estimated
08:46AM 60.3172 24.9633 North  Level Estimated
08:47AM 60.3172 24.9633 North  Level Estimated
08:48AM 60.3172 24.9633 North  Level Estimated
08:49AM 60.3172 24.9633 North  Level Estimated
08:50AM 60.3172 24.9633 North  Level Estimated
08:51AM 60.3172 24.9633 North  Level Estimated
08:52AM 60.3172 24.9633 North  Level Estimated
08:53AM 60.3172 24.9633 North  Level Estimated